createdAt,value
2023-05-16T00:02:09.826Z,43.22
2023-05-16T00:05:10.776Z,43.36
2023-05-16T00:08:11.796Z,43.44
2023-05-16T00:11:12.752Z,43.63
2023-05-16T00:14:14.772Z,43.84
2023-05-16T00:17:18.755Z,43.91
2023-05-16T00:20:20.763Z,44.01
2023-05-16T00:23:21.761Z,44.17
2023-05-16T00:26:23.013Z,44.23
2023-05-16T00:29:16.804Z,44.31
2023-05-16T00:32:04.845Z,44.40
2023-05-16T00:35:05.787Z,44.46
2023-05-16T00:38:07.816Z,44.55
2023-05-16T00:41:08.804Z,44.87
2023-05-16T00:44:09.796Z,44.99
2023-05-16T00:47:10.805Z,45.16
2023-05-16T00:50:11.854Z,45.32
2023-05-16T00:53:12.814Z,45.54
2023-05-16T00:56:13.804Z,45.66
2023-05-16T00:59:14.869Z,45.86
2023-05-16T01:02:15.882Z,45.93
2023-05-16T01:05:16.841Z,46.00
2023-05-16T01:08:17.829Z,46.35
2023-05-16T01:11:21.925Z,46.34
2023-05-16T01:14:25.862Z,46.62
2023-05-16T01:17:26.974Z,46.92
2023-05-16T01:20:54.811Z,47.22
2023-05-16T01:24:14.898Z,46.95
2023-05-16T01:27:15.865Z,47.40
2023-05-16T01:30:24.870Z,47.37
2023-05-16T01:33:25.902Z,47.74
2023-05-16T01:36:46.002Z,47.98
2023-05-16T01:39:46.883Z,48.29
2023-05-16T01:42:48.913Z,48.18
2023-05-16T01:45:49.948Z,48.26
2023-05-16T01:48:56.911Z,48.45
2023-05-16T01:52:11.889Z,48.80
2023-05-16T01:55:12.954Z,49.03
2023-05-16T01:58:13.925Z,49.15
2023-05-16T02:01:17.976Z,49.31
2023-05-16T02:04:20.011Z,49.27
2023-05-16T02:07:22.931Z,49.38
2023-05-16T02:10:23.944Z,49.42
2023-05-16T02:13:26.934Z,49.66
2023-05-16T02:16:30.986Z,49.64
2023-05-16T02:19:32.127Z,49.58
2023-05-16T02:22:33.996Z,49.41
2023-05-16T02:25:34.992Z,49.39
2023-05-16T02:28:36.963Z,49.58
2023-05-16T02:31:43.051Z,49.23
2023-05-16T02:34:44.003Z,49.51
2023-05-16T02:37:38.130Z,49.35
2023-05-16T02:40:39.083Z,49.57
2023-05-16T02:43:39.982Z,49.35
2023-05-16T02:46:42.088Z,49.24
2023-05-16T02:49:36.065Z,48.66
2023-05-16T02:52:22.978Z,48.71
2023-05-16T02:55:24.228Z,48.60
2023-05-16T02:58:25.995Z,48.50
2023-05-16T03:01:27.069Z,48.43
2023-05-16T03:04:28.032Z,47.82
2023-05-16T03:07:29.058Z,47.64
2023-05-16T03:10:32.046Z,47.42
2023-05-16T03:13:34.084Z,47.12
2023-05-16T03:16:35.185Z,47.24
2023-05-16T03:19:36.093Z,46.96
2023-05-16T03:22:37.098Z,46.91
2023-05-16T03:25:41.287Z,46.02
2023-05-16T03:28:42.082Z,45.37
2023-05-16T03:31:44.137Z,44.90
2023-05-16T03:34:45.375Z,45.13
2023-05-16T03:37:46.101Z,44.44
2023-05-16T03:40:47.193Z,44.35
2023-05-16T03:43:49.225Z,44.34
2023-05-16T03:46:51.132Z,44.44
2023-05-16T03:49:52.106Z,44.63
2023-05-16T03:52:53.119Z,44.58
2023-05-16T03:55:54.150Z,44.63
2023-05-16T03:58:55.118Z,44.61
2023-05-16T04:01:56.221Z,44.27
2023-05-16T04:04:57.206Z,44.51
2023-05-16T04:07:58.154Z,44.51
2023-05-16T04:10:59.142Z,44.58
2023-05-16T04:14:01.191Z,44.60
2023-05-16T04:17:02.381Z,44.87
2023-05-16T04:19:56.583Z,45.04
2023-05-16T04:22:57.197Z,45.31
2023-05-16T04:26:00.621Z,45.59
2023-05-16T04:29:01.135Z,45.63
2023-05-16T04:32:02.291Z,45.70
2023-05-16T04:35:03.714Z,45.74
2023-05-16T04:38:04.207Z,46.04
2023-05-16T04:41:05.227Z,46.08
2023-05-16T04:44:06.260Z,45.87
2023-05-16T04:47:07.219Z,45.81
2023-05-16T04:50:08.216Z,45.32
2023-05-16T04:53:11.252Z,45.09
2023-05-16T04:56:13.229Z,45.40
2023-05-16T04:59:14.241Z,45.42
2023-05-16T05:02:15.422Z,45.44
2023-05-16T05:05:16.657Z,45.79
2023-05-16T05:08:17.307Z,45.95
2023-05-16T05:11:20.381Z,46.02
2023-05-16T05:14:21.344Z,46.20
2023-05-16T05:17:23.578Z,46.16
2023-05-16T05:20:25.902Z,45.55
2023-05-16T05:23:27.381Z,45.01
2023-05-16T05:26:29.302Z,45.24
2023-05-16T05:29:30.296Z,45.18
2023-05-16T05:32:31.521Z,45.06
2023-05-16T05:35:33.648Z,45.40
2023-05-16T05:38:34.308Z,44.95
2023-05-16T05:41:37.309Z,44.90
2023-05-16T05:44:38.359Z,44.27
2023-05-16T05:47:39.390Z,43.88
2023-05-16T05:50:42.377Z,43.89
2023-05-16T05:53:44.428Z,43.47
2023-05-16T05:56:45.553Z,43.68
2023-05-16T05:59:46.462Z,43.32
2023-05-16T06:02:47.692Z,43.82
2023-05-16T06:05:54.517Z,44.33
2023-05-16T06:08:58.511Z,44.96
2023-05-16T06:11:59.417Z,44.89
2023-05-16T06:15:00.542Z,45.46
2023-05-16T06:18:02.554Z,45.31
2023-05-16T06:21:04.598Z,46.27
2023-05-16T06:24:05.413Z,45.38
2023-05-16T06:27:06.428Z,45.91
2023-05-16T06:30:08.478Z,45.66
2023-05-16T06:33:10.566Z,45.78
2023-05-16T06:36:11.539Z,46.21
2023-05-16T06:39:14.556Z,46.63
2023-05-16T06:42:16.554Z,46.28
2023-05-16T06:45:17.714Z,45.74
2023-05-16T06:48:18.558Z,45.75
2023-05-16T06:51:21.568Z,45.76
2023-05-16T06:54:44.854Z,45.71
2023-05-16T06:57:50.029Z,44.89
2023-05-16T07:00:50.511Z,44.68
2023-05-16T07:03:51.619Z,44.85
2023-05-16T07:06:54.554Z,44.88
2023-05-16T07:09:55.545Z,44.96
2023-05-16T07:12:56.567Z,45.38
2023-05-16T07:15:57.564Z,45.48
2023-05-16T07:18:58.605Z,45.29
2023-05-16T07:21:59.528Z,45.22
2023-05-16T07:25:03.528Z,44.92
2023-05-16T07:28:04.559Z,44.99
2023-05-16T07:31:08.654Z,44.55
2023-05-16T07:44:11.955Z,41.93
2023-05-16T07:47:12.406Z,40.39
2023-05-16T07:50:12.920Z,40.28
2023-05-16T07:53:13.906Z,40.37
2023-05-16T07:56:14.012Z,39.53
2023-05-16T07:59:15.882Z,39.48
2023-05-16T08:02:15.865Z,39.48
2023-05-16T08:05:15.858Z,39.80
2023-05-16T08:08:17.028Z,39.72
2023-05-16T08:11:16.986Z,39.80
2023-05-16T08:14:16.833Z,40.20
2023-05-16T08:17:16.855Z,40.54
2023-05-16T08:20:16.872Z,41.33
2023-05-16T08:23:20.053Z,42.47
2023-05-16T08:26:19.863Z,43.17
2023-05-16T08:29:19.993Z,43.18
2023-05-16T08:32:21.994Z,43.31
2023-05-16T08:35:24.121Z,43.45
2023-05-16T08:38:24.589Z,44.20
2023-05-16T08:41:25.022Z,45.77
2023-05-16T08:44:28.003Z,46.77
2023-05-16T08:47:36.129Z,47.42
2023-05-16T08:50:37.075Z,48.29
2023-05-16T08:53:40.083Z,48.63
2023-05-16T08:56:40.092Z,49.87
2023-05-16T08:59:40.129Z,50.25
2023-05-16T09:02:42.842Z,50.62
2023-05-16T09:05:43.611Z,51.41
2023-05-16T09:08:46.185Z,51.57
2023-05-16T09:11:46.242Z,51.17
2023-05-16T09:14:47.027Z,51.27
2023-05-16T09:17:50.569Z,50.80
2023-05-16T09:20:53.535Z,50.45
2023-05-16T09:23:56.228Z,49.12
2023-05-16T09:26:57.069Z,48.74
2023-05-16T09:29:57.223Z,47.49
2023-05-16T09:32:58.176Z,47.43
2023-05-16T09:35:58.081Z,47.27
2023-05-16T09:38:59.090Z,47.71
2023-05-16T09:42:05.128Z,47.32
2023-05-16T09:45:05.286Z,47.41
2023-05-16T09:48:05.600Z,46.94
2023-05-16T09:51:11.235Z,46.46
2023-05-16T09:54:12.097Z,46.37
2023-05-16T09:57:12.162Z,45.97
2023-05-16T10:00:14.218Z,46.46
2023-05-16T10:03:14.176Z,45.47
2023-05-16T10:06:15.137Z,45.96
2023-05-16T10:09:16.196Z,45.80
2023-05-16T10:12:17.233Z,45.88
2023-05-16T10:15:18.719Z,46.22
2023-05-16T10:18:19.243Z,46.35
2023-05-16T10:21:20.160Z,45.83
2023-05-16T10:24:20.220Z,45.48
2023-05-16T10:27:20.191Z,45.53
2023-05-16T10:30:20.184Z,45.77
2023-05-16T10:33:21.265Z,45.59
2023-05-16T10:36:27.569Z,45.27
2023-05-16T10:39:37.485Z,44.92
2023-05-16T10:42:54.809Z,44.96
2023-05-16T10:45:58.272Z,44.70
2023-05-16T10:48:58.903Z,44.55
2023-05-16T10:51:59.182Z,44.26
2023-05-16T10:55:04.243Z,43.60
2023-05-16T10:58:04.254Z,43.96
2023-05-16T11:01:24.389Z,41.85
2023-05-16T11:04:25.391Z,41.49
2023-05-16T11:07:25.904Z,41.63
2023-05-16T11:10:29.362Z,42.02
2023-05-16T11:13:30.258Z,41.51
2023-05-16T11:16:42.341Z,41.53
2023-05-16T11:19:52.260Z,41.62
2023-05-16T11:22:52.273Z,41.68
2023-05-16T11:25:52.476Z,41.75
2023-05-16T11:28:52.350Z,41.67
2023-05-16T11:31:53.460Z,41.11
2023-05-16T11:34:57.522Z,41.22
2023-05-16T11:38:00.381Z,41.28
2023-05-16T11:41:00.288Z,41.34
2023-05-16T11:44:04.360Z,41.34
2023-05-16T11:47:04.454Z,41.05
2023-05-16T11:50:10.379Z,40.95
2023-05-16T11:53:12.330Z,40.94
2023-05-16T11:56:16.794Z,41.00
2023-05-16T11:59:17.446Z,40.76
2023-05-16T12:02:20.309Z,40.92
2023-05-16T12:05:21.465Z,41.18
2023-05-16T12:08:22.352Z,41.25
2023-05-16T12:11:23.661Z,40.94
2023-05-16T12:14:26.352Z,40.84
2023-05-16T12:17:28.484Z,40.70
2023-05-16T12:20:32.621Z,40.80
2023-05-16T12:23:35.379Z,41.13
2023-05-16T12:26:44.394Z,41.45
2023-05-16T12:29:44.384Z,41.64
2023-05-16T12:32:44.562Z,41.43
2023-05-16T12:35:44.413Z,41.56
2023-05-16T12:38:46.831Z,41.60
2023-05-16T12:41:48.665Z,41.69
2023-05-16T12:44:48.583Z,41.92
2023-05-16T12:47:49.459Z,42.17
2023-05-16T12:50:49.434Z,42.47
2023-05-16T12:54:08.944Z,42.55
2023-05-16T12:57:13.623Z,42.62
2023-05-16T13:00:07.900Z,43.02
2023-05-16T13:03:08.606Z,43.26
2023-05-16T13:06:10.463Z,43.50
2023-05-16T13:09:11.645Z,43.51
2023-05-16T13:12:13.621Z,43.51
2023-05-16T13:15:14.471Z,43.38
2023-05-16T13:18:14.511Z,43.45
2023-05-16T13:21:14.589Z,43.59
2023-05-16T13:24:14.476Z,43.78
2023-05-16T13:27:15.506Z,44.06
2023-05-16T13:30:15.552Z,44.41
2023-05-16T13:33:17.531Z,44.60
2023-05-16T13:36:17.671Z,44.13
2023-05-16T13:39:20.532Z,43.42
2023-05-16T13:42:20.538Z,43.69
2023-05-16T13:45:20.526Z,43.45
2023-05-16T13:48:24.365Z,43.33
2023-05-16T13:51:24.583Z,43.10
2023-05-16T13:54:25.598Z,43.21
2023-05-16T13:57:25.582Z,43.27
2023-05-16T14:00:43.465Z,43.04
2023-05-16T14:03:54.143Z,43.23
2023-05-16T14:06:55.584Z,42.82
2023-05-16T14:09:56.221Z,43.15
2023-05-16T14:12:57.672Z,43.29
2023-05-16T14:15:57.602Z,42.72
2023-05-16T14:18:58.681Z,43.02
2023-05-16T14:22:01.128Z,42.26
2023-05-16T14:24:55.818Z,41.95
2023-05-16T14:27:59.377Z,41.95
2023-05-16T14:30:59.642Z,41.80
2023-05-16T14:33:59.622Z,41.66
2023-05-16T14:36:59.730Z,42.04
2023-05-16T14:40:01.601Z,41.98
2023-05-16T14:43:03.675Z,41.79
2023-05-16T14:46:04.806Z,41.83
2023-05-16T14:49:04.624Z,41.23
2023-05-16T14:52:04.730Z,41.59
2023-05-16T14:55:04.714Z,42.03
2023-05-16T14:58:05.693Z,42.01
2023-05-16T15:01:05.695Z,41.86
2023-05-16T15:04:05.659Z,41.99
2023-05-16T15:07:07.297Z,41.78
2023-05-16T15:10:08.653Z,41.91
2023-05-16T15:13:08.812Z,42.15
2023-05-16T15:16:11.153Z,42.17
2023-05-16T15:19:11.744Z,42.39
2023-05-16T15:22:15.707Z,42.05
2023-05-16T15:25:16.779Z,42.17
2023-05-16T15:28:19.930Z,41.85
2023-05-16T15:31:21.829Z,42.10
2023-05-16T15:34:21.776Z,42.01
2023-05-16T15:37:21.814Z,42.27
2023-05-16T15:40:26.372Z,42.24
2023-05-16T15:43:35.577Z,42.05
2023-05-16T15:46:48.309Z,42.07
2023-05-16T15:53:41.377Z,42.34
2023-05-16T15:56:43.817Z,42.42
2023-05-16T15:59:43.859Z,42.31
2023-05-16T16:02:43.895Z,42.36
2023-05-16T16:05:44.224Z,42.45
2023-05-16T16:08:44.814Z,42.35
2023-05-16T16:11:44.847Z,42.62
2023-05-16T16:14:45.032Z,42.65
2023-05-16T16:17:49.717Z,42.80
2023-05-16T16:20:57.236Z,42.78
2023-05-16T16:24:03.040Z,43.09
2023-05-16T16:27:04.647Z,43.08
2023-05-16T16:30:08.792Z,43.18
2023-05-16T16:33:08.855Z,43.31
2023-05-16T16:36:08.886Z,43.38
2023-05-16T16:39:11.812Z,43.45
2023-05-16T16:42:17.754Z,43.45
2023-05-16T16:45:29.340Z,43.37
2023-05-16T16:48:32.894Z,43.57
2023-05-16T16:51:39.710Z,43.63
2023-05-16T16:54:45.851Z,43.72
2023-05-16T16:57:46.920Z,43.81
2023-05-16T17:00:47.960Z,43.99
2023-05-16T17:03:47.908Z,44.20
2023-05-16T17:06:48.779Z,44.25
2023-05-16T17:09:49.658Z,44.26
2023-05-16T17:12:55.978Z,44.54
2023-05-16T17:15:56.883Z,44.61
2023-05-16T17:18:59.100Z,44.75
2023-05-16T17:22:00.588Z,44.98
2023-05-16T17:25:01.941Z,45.19
2023-05-16T17:28:02.942Z,45.40
2023-05-16T17:31:08.278Z,45.58
2023-05-16T17:34:13.138Z,45.73
2023-05-16T17:37:17.547Z,45.84
2023-05-16T17:40:22.964Z,46.13
2023-05-16T17:43:23.172Z,46.20
2023-05-16T17:46:27.322Z,46.36
2023-05-16T17:49:29.201Z,46.52
2023-05-16T17:52:30.280Z,46.61
2023-05-16T17:55:30.212Z,46.74
2023-05-16T17:58:30.945Z,46.89
2023-05-16T18:01:30.989Z,47.04
2023-05-16T18:04:34.060Z,47.32
2023-05-16T18:07:35.065Z,47.47
2023-05-16T18:10:50.262Z,47.63
2023-05-16T18:13:51.987Z,47.85
2023-05-16T18:17:19.486Z,48.07
2023-05-16T18:20:26.136Z,48.33
2023-05-16T18:23:27.363Z,48.40
2023-05-16T18:26:28.297Z,48.70
2023-05-16T18:29:28.186Z,48.86
2023-05-16T18:32:28.062Z,49.04
2023-05-16T18:35:30.248Z,49.05
2023-05-16T18:38:33.094Z,49.19
2023-05-16T18:41:34.445Z,49.48
2023-05-16T18:44:39.988Z,49.68
2023-05-16T18:47:40.175Z,49.83
2023-05-16T18:50:40.170Z,49.84
2023-05-16T18:53:40.249Z,49.97
2023-05-16T18:56:40.403Z,50.05
2023-05-16T18:59:41.146Z,50.18
2023-05-16T19:02:42.838Z,50.26
2023-05-16T19:05:47.649Z,50.50
2023-05-16T19:08:51.153Z,50.47
2023-05-16T19:11:54.305Z,50.63
2023-05-16T19:14:57.186Z,50.83
2023-05-16T19:17:59.259Z,51.17
2023-05-16T19:20:59.127Z,51.18
2023-05-16T19:23:59.331Z,51.41
2023-05-16T19:27:00.208Z,51.62
2023-05-16T19:30:00.204Z,51.62
2023-05-16T19:33:05.219Z,51.73
2023-05-16T19:36:06.163Z,52.02
2023-05-16T19:39:06.220Z,52.10
2023-05-16T19:42:07.482Z,52.11
2023-05-16T19:45:11.591Z,52.23
2023-05-16T19:48:17.254Z,52.36
2023-05-16T19:51:40.186Z,52.43
2023-05-16T19:54:42.255Z,52.70
2023-05-16T19:57:43.225Z,52.71
2023-05-16T20:00:45.838Z,52.92
2023-05-16T20:03:47.225Z,53.06
2023-05-16T20:06:47.311Z,53.21
2023-05-16T20:09:48.923Z,53.27
2023-05-16T20:12:51.209Z,53.26
2023-05-16T20:15:54.243Z,53.32
2023-05-16T20:18:49.402Z,53.40
2023-05-16T20:21:49.281Z,53.49
2023-05-16T20:24:50.236Z,53.60
2023-05-16T20:27:51.340Z,53.62
2023-05-16T20:30:51.271Z,53.72
2023-05-16T20:33:53.377Z,53.77
2023-05-16T20:36:53.383Z,53.85
2023-05-16T20:39:54.317Z,54.11
2023-05-16T20:42:58.291Z,54.16
2023-05-16T20:45:58.300Z,54.19
2023-05-16T20:48:58.326Z,54.35
2023-05-16T20:51:58.306Z,54.44
2023-05-16T20:54:59.306Z,54.52
2023-05-16T20:57:59.302Z,54.52
2023-05-16T21:00:59.329Z,54.62
2023-05-16T21:04:00.315Z,54.82
2023-05-16T21:07:00.375Z,54.81
2023-05-16T21:10:00.285Z,54.93
2023-05-16T21:13:01.490Z,54.96
2023-05-16T21:16:01.315Z,55.08
2023-05-16T21:19:01.526Z,55.06
2023-05-16T21:22:02.370Z,55.04
2023-05-16T21:25:02.402Z,55.01
2023-05-16T21:28:02.401Z,55.05
2023-05-16T21:31:03.384Z,54.87
2023-05-16T21:34:06.408Z,54.97
2023-05-16T21:37:07.365Z,54.92
2023-05-16T21:40:07.392Z,54.94
2023-05-16T21:43:08.334Z,54.83
2023-05-16T21:46:09.257Z,54.75
2023-05-16T21:49:09.374Z,54.71
2023-05-16T21:52:09.313Z,54.75
2023-05-16T21:55:10.332Z,54.79
2023-05-16T21:58:11.666Z,54.75
2023-05-16T22:01:11.307Z,54.85
2023-05-16T22:04:12.486Z,54.74
2023-05-16T22:07:12.267Z,54.73
2023-05-16T22:10:18.453Z,54.73
2023-05-16T22:13:20.069Z,54.72
2023-05-16T22:16:20.360Z,54.84
2023-05-16T22:19:20.413Z,54.92
2023-05-16T22:22:20.772Z,54.82
2023-05-16T22:25:22.397Z,55.07
2023-05-16T22:28:22.386Z,55.01
2023-05-16T22:31:24.686Z,55.02
2023-05-16T22:34:27.367Z,55.23
2023-05-16T22:37:27.410Z,55.30
2023-05-16T22:40:29.459Z,55.40
2023-05-16T22:43:29.392Z,55.48
2023-05-16T22:46:29.433Z,55.60
2023-05-16T22:49:30.656Z,55.47
2023-05-16T22:52:31.371Z,55.43
2023-05-16T22:55:33.516Z,55.32
2023-05-16T22:58:33.460Z,55.31
2023-05-16T23:01:38.073Z,55.29
2023-05-16T23:04:39.483Z,55.35
2023-05-16T23:07:41.604Z,55.44
2023-05-16T23:10:41.415Z,55.49
2023-05-16T23:13:42.480Z,55.41
2023-05-16T23:16:42.489Z,55.49
2023-05-16T23:19:42.471Z,55.45
2023-05-16T23:22:42.511Z,55.42
2023-05-16T23:25:42.520Z,55.34
2023-05-16T23:28:43.455Z,55.36
2023-05-16T23:31:43.476Z,55.34
2023-05-16T23:34:43.550Z,55.30
2023-05-16T23:37:43.449Z,55.42
2023-05-16T23:40:43.463Z,55.30
2023-05-16T23:43:43.473Z,55.27
2023-05-16T23:46:43.472Z,55.35
2023-05-16T23:49:43.538Z,55.19
2023-05-16T23:52:44.627Z,55.30
2023-05-16T23:55:44.562Z,55.35
2023-05-16T23:58:44.701Z,55.23
